Kincaid, Kansas
Current Conditions -  °F | °C
As of 12:52 AM on Sunday 21 Dec 2014 (Local Time) from KCNU Reporting Station
Overcast Overcast  
Wind Chill:   Ceiling: 1300
Heat Index:   Visibility: 10mi
Dew Point:   Wind: 10mph
Humidity: 86%   Direction: 190°S
Pressure: 30.12"   Gusts: NA
Location:  38.08°N, 95.15°W
Report Text: KCNU 210652Z AUTO 19009KT 10SM BKN013 OVC022 04/02 A3012 RMK AO2 SLP201 T00440022
Loading
Personal Weather Stations






























Interactive Weather Map New forecast layout! Learn more

10-Day Weather Forecast

Advertisements
Track Severe Weather on mobile